createdAt,value
2022-08-01T00:00:53.466Z,100488.53
2022-08-01T00:03:22.138Z,100480.50
2022-08-01T00:05:48.698Z,100475.78
2022-08-01T00:08:22.117Z,100479.34
2022-08-01T00:10:48.594Z,100485.47
2022-08-01T00:13:24.140Z,100469.31
2022-08-01T00:15:53.820Z,100484.28
2022-08-01T00:18:27.126Z,100483.13
2022-08-01T00:20:55.909Z,100470.38
2022-08-01T00:23:29.144Z,100480.31
2022-08-01T00:25:55.627Z,100483.59
2022-08-01T00:28:22.107Z,100478.31
2022-08-01T00:30:53.091Z,100478.56
2022-08-01T00:33:19.594Z,100487.69
2022-08-01T00:35:46.051Z,100493.56
2022-08-01T00:38:19.156Z,100492.97
2022-08-01T00:40:45.610Z,100489.34
2022-08-01T00:43:12.087Z,100486.25
2022-08-01T00:45:38.735Z,100485.34
2022-08-01T00:48:05.438Z,100483.91
2022-08-01T00:50:32.299Z,100500.56
2022-08-01T00:53:07.171Z,100493.09
2022-08-01T00:55:33.899Z,100496.47
2022-08-01T00:58:07.167Z,100501.72
2022-08-01T01:00:52.846Z,100539.41
2022-08-01T01:03:57.626Z,100531.91
2022-08-01T01:06:35.847Z,100505.41
2022-08-01T01:09:37.232Z,100513.75
2022-08-01T01:14:55.170Z,100503.19
2022-08-01T01:17:51.390Z,100506.50
2022-08-01T01:20:21.830Z,100502.56
2022-08-01T01:22:54.391Z,100504.13
2022-08-01T01:25:36.233Z,100504.34
2022-08-01T01:28:11.440Z,100504.50
2022-08-01T01:30:39.934Z,100507.72
2022-08-01T01:33:12.974Z,100510.13
2022-08-01T01:35:45.761Z,100510.22
2022-08-01T01:38:18.534Z,100523.25
2022-08-01T01:40:47.507Z,100512.88
2022-08-01T01:43:15.591Z,100509.97
2022-08-01T01:45:46.031Z,100519.28
2022-08-01T01:48:17.809Z,100530.00
2022-08-01T01:50:46.042Z,100527.47
2022-08-01T01:53:15.049Z,100524.00
2022-08-01T01:55:50.334Z,100532.75
2022-08-01T01:58:18.664Z,100537.63
2022-08-01T02:00:54.210Z,100531.97
2022-08-01T02:03:25.030Z,100538.63
2022-08-01T02:06:01.246Z,100541.31
2022-08-01T02:08:30.728Z,100534.34
2022-08-01T02:11:25.205Z,100535.00
2022-08-01T02:13:59.479Z,100544.88
2022-08-01T02:16:36.213Z,100551.63
2022-08-01T02:19:03.950Z,100541.94
2022-08-01T02:21:53.221Z,100543.34
2022-08-01T02:24:30.553Z,100549.91
2022-08-01T02:27:07.235Z,100540.13
2022-08-01T02:29:57.441Z,100538.09
2022-08-01T02:32:39.245Z,100548.34
2022-08-01T02:35:09.946Z,100547.16
2022-08-01T02:37:47.084Z,100542.69
2022-08-01T02:40:15.359Z,100547.16
2022-08-01T02:42:55.262Z,100548.00
2022-08-01T02:45:25.327Z,100543.31
2022-08-01T02:48:01.266Z,100545.00
2022-08-01T02:50:30.654Z,100543.53
2022-08-01T02:53:08.256Z,100543.31
2022-08-01T02:55:38.468Z,100543.31
2022-08-01T02:58:13.270Z,100546.66
2022-08-01T03:00:46.603Z,100539.94
2022-08-01T03:03:29.309Z,100539.13
2022-08-01T03:05:57.109Z,100535.50
2022-08-01T03:08:38.280Z,100544.28
2022-08-01T03:11:09.571Z,100543.13
2022-08-01T03:13:43.274Z,100528.56
2022-08-01T03:16:11.877Z,100542.88
2022-08-01T03:18:49.276Z,100542.88
2022-08-01T03:21:20.865Z,100538.34
2022-08-01T03:23:58.294Z,100538.00
2022-08-01T03:26:37.025Z,100543.78
2022-08-01T03:29:17.282Z,100530.59
2022-08-01T03:31:46.056Z,100531.44
2022-08-01T03:34:19.283Z,100537.44
2022-08-01T03:37:02.571Z,100535.16
2022-08-01T03:39:44.181Z,100548.06
2022-08-01T03:42:18.524Z,100540.09
2022-08-01T03:44:52.591Z,100540.72
2022-08-01T03:47:25.089Z,100543.25
2022-08-01T03:49:53.377Z,100545.41
2022-08-01T03:52:20.715Z,100542.91
2022-08-01T03:54:50.113Z,100544.47
2022-08-01T03:57:35.875Z,100549.66
2022-08-01T04:00:08.296Z,100546.53
2022-08-01T04:02:38.140Z,100545.69
2022-08-01T04:05:05.607Z,100541.13
2022-08-01T04:07:36.790Z,100536.41
2022-08-01T04:10:04.678Z,100541.56
2022-08-01T04:12:31.131Z,100540.47
2022-08-01T04:14:57.579Z,100540.97
2022-08-01T04:17:24.027Z,100543.03
2022-08-01T04:19:50.516Z,100552.16
2022-08-01T04:22:19.623Z,100544.09
2022-08-01T04:24:54.481Z,100562.97
2022-08-01T04:27:50.646Z,100564.66
2022-08-01T04:30:20.783Z,100566.34
2022-08-01T04:32:48.868Z,100562.47
2022-08-01T04:35:23.438Z,100565.38
2022-08-01T04:38:06.490Z,100574.31
2022-08-01T04:40:35.460Z,100573.56
2022-08-01T04:43:02.039Z,100567.31
2022-08-01T04:45:29.485Z,100566.81
2022-08-01T04:48:00.755Z,100571.63
2022-08-01T04:50:28.274Z,100574.25
2022-08-01T04:52:54.735Z,100573.31
2022-08-01T04:55:21.190Z,100594.09
2022-08-01T04:57:48.980Z,100583.50
2022-08-01T05:00:17.600Z,100581.56
2022-08-01T05:02:44.244Z,100576.72
2022-08-01T05:05:13.506Z,100586.31
2022-08-01T05:07:44.169Z,100582.31
2022-08-01T05:10:14.088Z,100583.59
2022-08-01T05:12:40.702Z,100585.19
2022-08-01T05:15:15.483Z,100578.97
2022-08-01T05:17:45.430Z,100591.25
2022-08-01T05:20:12.808Z,100590.34
2022-08-01T05:22:39.865Z,100584.63
2022-08-01T05:25:09.029Z,100602.94
2022-08-01T05:27:40.771Z,100581.56
2022-08-01T05:30:08.673Z,100581.38
2022-08-01T05:32:35.235Z,100583.75
2022-08-01T05:35:07.703Z,100586.34
2022-08-01T05:37:34.207Z,100603.59
2022-08-01T05:40:00.975Z,100590.16
2022-08-01T05:42:27.543Z,100613.44
2022-08-01T05:44:53.981Z,100591.84
2022-08-01T05:47:20.395Z,100600.88
2022-08-01T05:49:46.917Z,100594.44
2022-08-01T05:52:13.782Z,100588.97
2022-08-01T05:54:40.263Z,100591.66
2022-08-01T05:57:07.399Z,100602.94
2022-08-01T05:59:34.131Z,100593.81
2022-08-01T06:02:00.616Z,100609.88
2022-08-01T06:04:29.235Z,100597.34
2022-08-01T06:06:55.682Z,100598.34
2022-08-01T06:09:22.117Z,100602.91
2022-08-01T06:11:48.666Z,100613.50
2022-08-01T06:14:15.135Z,100635.31
2022-08-01T06:16:46.187Z,100612.09
2022-08-01T06:19:12.627Z,100609.06
2022-08-01T06:21:39.055Z,100626.91
2022-08-01T06:24:05.751Z,100607.38
2022-08-01T06:26:32.865Z,100623.44
2022-08-01T06:28:59.331Z,100617.81
2022-08-01T06:31:28.390Z,100637.13
2022-08-01T06:33:58.631Z,100613.78
2022-08-01T06:36:26.558Z,100637.88
2022-08-01T06:38:53.053Z,100636.91
2022-08-01T06:41:19.523Z,100630.81
2022-08-01T06:43:45.937Z,100630.06
2022-08-01T06:46:12.451Z,100626.69
2022-08-01T06:48:40.339Z,100645.25
2022-08-01T06:51:10.012Z,100637.88
2022-08-01T06:53:38.543Z,100669.97
2022-08-01T06:56:06.658Z,100664.22
2022-08-01T06:58:35.831Z,100662.31
2022-08-01T07:01:08.807Z,100676.06
2022-08-01T07:03:53.181Z,100675.25
2022-08-01T07:06:23.104Z,100672.00
2022-08-01T07:08:49.499Z,100658.03
2022-08-01T07:11:15.888Z,100694.88
2022-08-01T07:13:46.768Z,100675.94
2022-08-01T07:16:14.429Z,100674.81
2022-08-01T07:18:41.948Z,100688.78
2022-08-01T07:21:38.776Z,100703.28
2022-08-01T07:23:57.261Z,100690.75
2022-08-01T07:26:28.384Z,100686.56
2022-08-01T07:28:57.399Z,100704.19
2022-08-01T07:31:25.687Z,100649.66
2022-08-01T07:33:55.310Z,100656.28
2022-08-01T07:36:22.020Z,100659.06
2022-08-01T07:38:48.449Z,100664.63
2022-08-01T07:41:15.215Z,100655.59
2022-08-01T07:43:45.559Z,100674.13
2022-08-01T07:46:19.744Z,100716.94
2022-08-01T07:48:46.205Z,100669.72
2022-08-01T07:51:15.309Z,100662.28
2022-08-01T07:53:44.415Z,100646.34
2022-08-01T07:56:10.801Z,100648.16
2022-08-01T07:58:37.231Z,100649.72
2022-08-01T08:01:03.794Z,100623.22
2022-08-01T08:03:30.280Z,100669.25
2022-08-01T08:06:01.685Z,100674.16
2022-08-01T08:08:28.455Z,100683.16
2022-08-01T08:10:55.401Z,100709.88
2022-08-01T08:13:24.330Z,100692.41
2022-08-01T08:15:53.791Z,100684.19
2022-08-01T08:18:20.325Z,100688.91
2022-08-01T08:20:46.773Z,100666.03
2022-08-01T08:23:44.517Z,100696.63
2022-08-01T08:26:18.802Z,100663.28
2022-08-01T08:28:51.551Z,100643.69
2022-08-01T08:31:25.572Z,100634.22
2022-08-01T08:34:10.558Z,100678.38
2022-08-01T08:36:36.950Z,100681.75
2022-08-01T08:39:11.531Z,100698.09
2022-08-01T08:41:38.359Z,100691.03
2022-08-01T08:44:13.547Z,100683.88
2022-08-01T08:46:45.902Z,100654.19
2022-08-01T08:49:22.675Z,100699.44
2022-08-01T08:51:51.221Z,100719.06
2022-08-01T08:54:31.263Z,100694.50
2022-08-01T08:56:59.679Z,100674.91
2022-08-01T08:59:32.542Z,100689.38
2022-08-01T09:01:59.674Z,100699.19
2022-08-01T09:04:33.560Z,100653.00
2022-08-01T09:07:00.039Z,100698.72
2022-08-01T09:09:46.578Z,100691.53
2022-08-01T09:12:17.867Z,100701.63
2022-08-01T09:14:50.722Z,100707.41
2022-08-01T09:17:17.626Z,100694.50
2022-08-01T09:19:50.291Z,100685.81
2022-08-01T09:22:22.428Z,100728.97
2022-08-01T09:25:09.690Z,100717.47
2022-08-01T09:27:44.364Z,100701.59
2022-08-01T09:30:17.094Z,100724.94
2022-08-01T09:33:11.127Z,100668.00
2022-08-01T09:35:43.290Z,100676.31
2022-08-01T09:38:21.050Z,100673.22
2022-08-01T09:40:51.440Z,100698.66
2022-08-01T09:43:19.669Z,100714.97
2022-08-01T09:45:53.775Z,100652.72
2022-08-01T09:48:28.785Z,100692.81
2022-08-01T09:51:04.019Z,100758.78
2022-08-01T09:53:51.939Z,100730.41
2022-08-01T09:56:20.435Z,100724.28
2022-08-01T09:59:00.891Z,100724.28
2022-08-01T10:01:45.259Z,100724.94
2022-08-01T10:04:15.159Z,100718.06
2022-08-01T10:06:44.989Z,100707.25
2022-08-01T10:09:14.603Z,100676.34
2022-08-01T10:11:45.045Z,100688.44
2022-08-01T10:14:14.675Z,100677.56
2022-08-01T10:16:46.203Z,100653.66
2022-08-01T10:19:23.571Z,100620.81
2022-08-01T10:21:58.091Z,100646.47
2022-08-01T10:24:29.212Z,100682.81
2022-08-01T10:27:06.107Z,100690.88
2022-08-01T10:29:46.463Z,100737.13
2022-08-01T10:32:28.989Z,100725.34
2022-08-01T10:34:56.141Z,100721.53
2022-08-01T10:37:22.723Z,100661.44
2022-08-01T10:39:56.617Z,100662.56
2022-08-01T10:42:35.767Z,100667.34
2022-08-01T10:45:02.900Z,100655.63
2022-08-01T10:47:50.667Z,100617.28
2022-08-01T10:50:29.213Z,100652.97
2022-08-01T10:53:23.892Z,100652.19
2022-08-01T10:55:57.308Z,100625.69
2022-08-01T10:58:42.483Z,100628.69
2022-08-01T11:01:14.916Z,100623.63
2022-08-01T11:04:01.147Z,100628.84
2022-08-01T11:06:34.319Z,100667.78
2022-08-01T11:09:12.960Z,100659.63
2022-08-01T11:12:13.277Z,100690.00
2022-08-01T11:14:59.972Z,100659.66
2022-08-01T11:17:37.581Z,100651.44
2022-08-01T11:20:31.547Z,100667.84
2022-08-01T11:23:07.564Z,100687.91
2022-08-01T11:26:06.673Z,100662.16
2022-08-01T11:28:34.632Z,100670.81
2022-08-01T11:31:08.054Z,100638.31
2022-08-01T11:33:50.189Z,100635.28
2022-08-01T11:36:37.034Z,100658.81
2022-08-01T11:39:13.365Z,100671.75
2022-08-01T11:41:42.546Z,100700.78
2022-08-01T11:44:14.591Z,100703.97
2022-08-01T11:47:11.639Z,100708.41
2022-08-01T11:49:49.919Z,100694.56
2022-08-01T11:52:36.560Z,100718.22
2022-08-01T11:55:03.498Z,100691.44
2022-08-01T11:57:35.815Z,100699.66
2022-08-01T12:00:15.021Z,100670.75
2022-08-01T12:02:45.456Z,100703.44
2022-08-01T12:05:15.977Z,100703.75
2022-08-01T12:07:46.245Z,100673.16
2022-08-01T12:10:16.390Z,100693.06
2022-08-01T12:12:51.742Z,100655.03
2022-08-01T12:15:23.632Z,100689.19
2022-08-01T12:17:59.011Z,100687.25
2022-08-01T12:20:38.186Z,100715.41
2022-08-01T12:23:09.010Z,100700.81
2022-08-01T12:25:36.540Z,100695.03
2022-08-01T12:28:05.180Z,100699.63
2022-08-01T12:30:37.949Z,100640.28
2022-08-01T12:33:06.040Z,100652.13
2022-08-01T12:35:33.397Z,100614.16
2022-08-01T12:38:04.385Z,100616.59
2022-08-01T12:40:38.232Z,100623.69
2022-08-01T12:43:09.386Z,100675.16
2022-08-01T12:45:57.113Z,100628.38
2022-08-01T12:48:25.374Z,100652.03
2022-08-01T12:50:53.420Z,100676.91
2022-08-01T12:53:21.597Z,100659.31
2022-08-01T12:55:58.143Z,100685.78
2022-08-01T12:58:33.116Z,100705.69
2022-08-01T13:01:06.873Z,100697.66
2022-08-01T13:03:33.567Z,100679.03
2022-08-01T13:06:01.137Z,100705.56
2022-08-01T13:08:33.235Z,100674.53
2022-08-01T13:11:15.092Z,100658.69
2022-08-01T13:13:49.974Z,100687.81
2022-08-01T13:16:31.131Z,100683.22
2022-08-01T13:19:07.567Z,100648.66
2022-08-01T13:21:52.945Z,100628.75
2022-08-01T13:24:27.704Z,100649.41
2022-08-01T13:27:03.483Z,100633.78
2022-08-01T13:29:35.208Z,100667.84
2022-08-01T13:32:28.464Z,100641.91
2022-08-01T13:35:05.764Z,100643.97
2022-08-01T13:37:32.478Z,100667.97
2022-08-01T13:39:59.215Z,100628.97
2022-08-01T13:42:30.098Z,100635.84
2022-08-01T13:44:56.688Z,100630.84
2022-08-01T13:47:31.417Z,100638.78
2022-08-01T13:50:02.699Z,100650.00
2022-08-01T13:52:29.664Z,100637.19
2022-08-01T13:54:59.518Z,100630.22
2022-08-01T13:57:26.476Z,100631.47
2022-08-01T14:00:06.613Z,100627.78
2022-08-01T14:02:33.275Z,100603.72
2022-08-01T14:05:02.422Z,100597.34
2022-08-01T14:07:29.026Z,100584.34
2022-08-01T14:10:19.434Z,100610.69
2022-08-01T14:12:47.628Z,100600.50
2022-08-01T14:15:38.980Z,100578.22
2022-08-01T14:18:10.068Z,100587.47
2022-08-01T14:20:44.821Z,100576.44
2022-08-01T14:23:12.114Z,100581.94
2022-08-01T14:26:05.492Z,100557.28
2022-08-01T14:28:35.775Z,100595.69
2022-08-01T14:31:08.899Z,100612.44
2022-08-01T14:33:35.795Z,100611.19
2022-08-01T14:36:30.155Z,100586.59
2022-08-01T14:39:00.526Z,100575.13
2022-08-01T14:41:36.237Z,100574.81
2022-08-01T14:44:02.814Z,100593.47
2022-08-01T14:46:35.827Z,100567.44
2022-08-01T14:49:04.692Z,100543.41
2022-08-01T14:51:40.863Z,100574.88
2022-08-01T14:54:10.159Z,100570.69
2022-08-01T14:56:42.856Z,100584.44
2022-08-01T14:59:21.062Z,100591.88
2022-08-01T15:01:56.910Z,100595.97
2022-08-01T15:04:25.787Z,100584.06
2022-08-01T15:06:58.882Z,100599.25
2022-08-01T15:09:25.474Z,100565.31
2022-08-01T15:12:00.898Z,100551.59
2022-08-01T15:14:45.962Z,100561.88
2022-08-01T15:17:12.463Z,100556.59
2022-08-01T15:19:42.546Z,100563.09
2022-08-01T15:22:09.946Z,100557.94
2022-08-01T15:24:36.582Z,100548.78
2022-08-01T15:27:03.220Z,100560.69
2022-08-01T15:29:32.581Z,100568.50
2022-08-01T15:31:59.430Z,100556.72
2022-08-01T15:34:33.032Z,100581.00
2022-08-01T15:37:02.316Z,100575.56
2022-08-01T15:39:29.167Z,100548.63
2022-08-01T15:41:55.594Z,100569.72
2022-08-01T15:44:22.692Z,100565.25
2022-08-01T15:46:50.138Z,100550.38
2022-08-01T15:49:17.854Z,100563.41
2022-08-01T15:51:46.694Z,100559.00
2022-08-01T15:54:14.848Z,100543.84
2022-08-01T15:56:41.466Z,100511.16
2022-08-01T15:59:09.508Z,100511.09
2022-08-01T16:01:36.360Z,100518.50
2022-08-01T16:04:03.238Z,100537.63
2022-08-01T16:06:29.935Z,100537.91
2022-08-01T16:08:58.891Z,100541.16
2022-08-01T16:11:27.586Z,100524.06
2022-08-01T16:13:55.911Z,100529.94
2022-08-01T16:16:22.877Z,100544.66
2022-08-01T16:18:53.823Z,100566.91
2022-08-01T16:21:26.959Z,100570.38
2022-08-01T16:23:53.442Z,100557.56
2022-08-01T16:26:28.958Z,100556.75
2022-08-01T16:28:56.048Z,100569.09
2022-08-01T16:31:37.601Z,100542.56
2022-08-01T16:34:08.858Z,100549.38
2022-08-01T16:36:36.168Z,100509.06
2022-08-01T16:39:03.743Z,100531.81
2022-08-01T16:41:38.943Z,100518.59
2022-08-01T16:44:07.938Z,100499.91
2022-08-01T16:46:44.965Z,100500.72
2022-08-01T16:49:15.801Z,100521.16
2022-08-01T16:51:48.994Z,100518.47
2022-08-01T16:54:25.174Z,100513.41
2022-08-01T16:57:08.414Z,100499.47
2022-08-01T16:59:41.571Z,100524.22
2022-08-01T17:02:16.027Z,100520.47
2022-08-01T17:04:42.570Z,100516.28
2022-08-01T17:07:09.325Z,100505.75
2022-08-01T17:09:39.864Z,100495.44
2022-08-01T17:12:22.565Z,100491.56
2022-08-01T17:14:49.806Z,100506.47
2022-08-01T17:17:16.352Z,100505.88
2022-08-01T17:19:42.783Z,100513.19
2022-08-01T17:22:15.976Z,100499.22
2022-08-01T17:24:42.529Z,100534.00
2022-08-01T17:27:12.748Z,100529.50
2022-08-01T17:29:43.523Z,100513.56
2022-08-01T17:32:11.241Z,100538.47
2022-08-01T17:34:39.897Z,100516.09
2022-08-01T17:37:13.005Z,100515.28
2022-08-01T17:39:40.220Z,100510.56
2022-08-01T17:42:15.002Z,100503.91
2022-08-01T17:44:48.980Z,100496.06
2022-08-01T17:47:49.359Z,100508.69
2022-08-01T17:50:12.538Z,100505.97
2022-08-01T17:52:39.184Z,100519.38
2022-08-01T17:55:06.841Z,100499.56
2022-08-01T17:58:05.179Z,100509.09
2022-08-01T18:00:31.631Z,100519.19
2022-08-01T18:02:58.036Z,100520.91
2022-08-01T18:05:36.657Z,100518.34
2022-08-01T18:08:05.515Z,100506.41
2022-08-01T18:10:40.262Z,100492.94
2022-08-01T18:13:07.936Z,100500.56
2022-08-01T18:15:34.562Z,100483.50
2022-08-01T18:18:08.043Z,100485.81
2022-08-01T18:20:35.238Z,100493.09
2022-08-01T18:23:01.639Z,100475.50
2022-08-01T18:25:29.374Z,100482.25
2022-08-01T18:28:29.247Z,100484.78
2022-08-01T18:30:44.808Z,100496.56
2022-08-01T18:33:11.220Z,100517.81
2022-08-01T18:35:52.260Z,100490.97
2022-08-01T18:38:29.056Z,100496.34
2022-08-01T18:41:00.350Z,100496.88
2022-08-01T18:43:34.063Z,100532.34
2022-08-01T18:46:02.044Z,100549.69
2022-08-01T18:48:35.098Z,100559.19
2022-08-01T18:51:04.088Z,100571.72
2022-08-01T18:53:42.068Z,100562.50
2022-08-01T18:56:12.020Z,100575.91
2022-08-01T18:58:49.076Z,100577.03
2022-08-01T19:01:15.562Z,100577.31
2022-08-01T19:03:42.893Z,100583.16
2022-08-01T19:06:10.185Z,100581.50
2022-08-01T19:08:39.452Z,100587.38
2022-08-01T19:11:06.968Z,100596.88
2022-08-01T19:13:42.093Z,100597.16
2022-08-01T19:16:08.721Z,100602.19
2022-08-01T19:18:35.320Z,100594.94
2022-08-01T19:21:04.482Z,100591.31
2022-08-01T19:23:52.388Z,100560.31
2022-08-01T19:26:25.877Z,100557.22
2022-08-01T19:28:57.519Z,100577.09
2022-08-01T19:31:27.651Z,100579.34
2022-08-01T19:33:56.033Z,100569.00
2022-08-01T19:36:27.749Z,100594.69
2022-08-01T19:39:02.093Z,100581.56
2022-08-01T19:41:32.798Z,100605.88
2022-08-01T19:44:03.614Z,100583.53
2022-08-01T19:46:30.501Z,100598.31
2022-08-01T19:48:57.184Z,100563.44
2022-08-01T19:51:33.319Z,100558.44
2022-08-01T19:54:05.061Z,100596.38
2022-08-01T19:56:38.139Z,100602.22
2022-08-01T19:59:07.852Z,100594.44
2022-08-01T20:01:36.264Z,100599.19
2022-08-01T20:04:04.858Z,100588.28
2022-08-01T20:06:35.325Z,100611.72
2022-08-01T20:09:04.916Z,100620.94
2022-08-01T20:11:33.664Z,100619.56
2022-08-01T20:14:00.986Z,100624.00
2022-08-01T20:16:29.711Z,100628.19
2022-08-01T20:18:59.045Z,100631.81
2022-08-01T20:21:27.483Z,100630.69
2022-08-01T20:24:02.478Z,100619.53
2022-08-01T20:26:33.450Z,100627.06
2022-08-01T20:29:00.507Z,100625.38
2022-08-01T20:31:33.994Z,100618.38
2022-08-01T20:34:15.906Z,100615.84
2022-08-01T20:36:54.492Z,100595.75
2022-08-01T20:39:28.041Z,100622.81
2022-08-01T20:42:00.118Z,100597.13
2022-08-01T20:44:31.440Z,100620.53
2022-08-01T20:46:58.851Z,100602.66
2022-08-01T20:49:26.863Z,100600.69
2022-08-01T20:51:53.669Z,100615.78
2022-08-01T20:54:22.767Z,100611.84
2022-08-01T20:56:55.206Z,100623.00
2022-08-01T20:59:54.656Z,100618.81
2022-08-01T21:02:47.746Z,100616.56
2022-08-01T21:05:36.480Z,100627.19
2022-08-01T21:08:07.632Z,100624.38
2022-08-01T21:10:54.174Z,100632.47
2022-08-01T21:13:36.152Z,100621.56
2022-08-01T21:16:24.241Z,100622.69
2022-08-01T21:19:18.439Z,100634.91
2022-08-01T21:22:10.752Z,100625.66
2022-08-01T21:25:08.189Z,100623.56
2022-08-01T21:27:35.956Z,100633.59
2022-08-01T21:30:06.332Z,100644.41
2022-08-01T21:32:34.694Z,100636.59
2022-08-01T21:35:05.984Z,100652.22
2022-08-01T21:37:52.094Z,100634.94
2022-08-01T21:40:21.995Z,100648.06
2022-08-01T21:42:52.302Z,100647.53
2022-08-01T21:45:22.656Z,100649.22
2022-08-01T21:47:50.414Z,100652.56
2022-08-01T21:50:16.949Z,100645.59
2022-08-01T21:52:54.162Z,100658.13
2022-08-01T21:55:52.099Z,100665.34
2022-08-01T21:58:42.356Z,100670.38
2022-08-01T22:01:23.059Z,100680.41
2022-08-01T22:03:53.318Z,100679.03
2022-08-01T22:06:26.691Z,100672.56
2022-08-01T22:09:18.213Z,100674.25
2022-08-01T22:12:01.242Z,100674.19
2022-08-01T22:14:33.483Z,100684.78
2022-08-01T22:17:03.343Z,100680.31
2022-08-01T22:19:44.017Z,100683.66
2022-08-01T22:22:44.874Z,100689.75
2022-08-01T22:25:03.918Z,100689.09
2022-08-01T22:28:06.763Z,100692.41
2022-08-01T22:30:29.068Z,100685.41
2022-08-01T22:33:07.994Z,100679.00
2022-08-01T22:35:50.883Z,100685.59
2022-08-01T22:38:22.475Z,100697.22
2022-08-01T22:41:01.909Z,100681.66
2022-08-01T22:43:50.106Z,100687.78
2022-08-01T22:46:26.624Z,100698.00
2022-08-01T22:48:59.521Z,100678.69
2022-08-01T22:51:31.484Z,100683.09
2022-08-01T22:54:09.153Z,100675.03
2022-08-01T22:56:43.898Z,100669.66
2022-08-01T22:59:23.590Z,100671.25
2022-08-01T23:01:51.628Z,100689.63
2022-08-01T23:04:33.116Z,100686.19
2022-08-01T23:07:11.281Z,100670.03
2022-08-01T23:09:53.749Z,100672.19
2022-08-01T23:12:37.264Z,100667.69
2022-08-01T23:15:04.782Z,100687.91
2022-08-01T23:17:41.277Z,100679.66
2022-08-01T23:20:08.126Z,100677.03
2022-08-01T23:22:42.307Z,100674.78
2022-08-01T23:25:12.631Z,100673.69
2022-08-01T23:28:04.251Z,100673.94
2022-08-01T23:30:31.831Z,100669.16
2022-08-01T23:33:00.643Z,100671.56
2022-08-01T23:35:27.270Z,100670.97
2022-08-01T23:37:55.841Z,100677.38
2022-08-01T23:40:29.564Z,100683.25
2022-08-01T23:42:56.182Z,100670.94
2022-08-01T23:45:23.309Z,100668.63
2022-08-01T23:47:49.888Z,100655.88
2022-08-01T23:50:16.405Z,100676.09
2022-08-01T23:52:48.136Z,100659.94
2022-08-01T23:55:17.052Z,100652.91
2022-08-01T23:57:44.335Z,100681.53
